Watts, Oklahoma
Current Conditions -  °F | °C
As of 8:55 PM on Sunday 21 Dec 2014 (Local Time) from KSLG Reporting Station
Overcast Overcast  
Wind Chill: 40°   Ceiling: 1700
Heat Index: 45°   Visibility: 10mi
Dew Point: 36°   Wind: 8mph
Humidity: 71%   Direction: 170°S
Pressure: 29.84"   Gusts: NA
Location:  36.11°N, 94.57°W
Report Text: KSLG 220255Z AUTO 17007KT 10SM OVC017 07/02 A2984 RMK AO1 57014
Loading
Personal Weather Stations






























Interactive Weather Map New forecast layout! Learn more

10-Day Weather Forecast

Advertisements
Track Severe Weather on mobile